sensor_id;sensor_type;location;lat;lon;timestamp;P1;durP1;ratioP1;P2;durP2;ratioP2
13171;SDS011;6651;53.200;10.432;2024-01-25T00:01:15;31.58;;;7.25;;
13171;SDS011;6651;53.200;10.432;2024-01-25T00:03:41;26.33;;;6.50;;
13171;SDS011;6651;53.200;10.432;2024-01-25T00:06:07;23.52;;;5.97;;
13171;SDS011;6651;53.200;10.432;2024-01-25T00:08:33;26.63;;;6.32;;
13171;SDS011;6651;53.200;10.432;2024-01-25T00:11:00;30.30;;;7.28;;
13171;SDS011;6651;53.200;10.432;2024-01-25T00:13:26;24.17;;;6.53;;
13171;SDS011;6651;53.200;10.432;2024-01-25T00:15:52;27.30;;;6.90;;
13171;SDS011;6651;53.200;10.432;2024-01-25T00:18:18;29.48;;;7.30;;
13171;SDS011;6651;53.200;10.432;2024-01-25T00:20:43;30.70;;;7.55;;
13171;SDS011;6651;53.200;10.432;2024-01-25T00:23:09;29.70;;;7.07;;
13171;SDS011;6651;53.200;10.432;2024-01-25T00:25:35;24.17;;;6.38;;
13171;SDS011;6651;53.200;10.432;2024-01-25T00:28:02;30.95;;;7.40;;
13171;SDS011;6651;53.200;10.432;2024-01-25T00:30:28;30.92;;;7.03;;
13171;SDS011;6651;53.200;10.432;2024-01-25T00:32:54;27.13;;;6.88;;
13171;SDS011;6651;53.200;10.432;2024-01-25T00:35:20;27.95;;;7.18;;
13171;SDS011;6651;53.200;10.432;2024-01-25T00:37:46;25.45;;;6.68;;
13171;SDS011;6651;53.200;10.432;2024-01-25T00:40:12;32.80;;;6.97;;
13171;SDS011;6651;53.200;10.432;2024-01-25T00:42:42;25.27;;;6.57;;
13171;SDS011;6651;53.200;10.432;2024-01-25T00:45:09;26.67;;;6.60;;
13171;SDS011;6651;53.200;10.432;2024-01-25T00:47:35;23.80;;;6.05;;
13171;SDS011;6651;53.200;10.432;2024-01-25T00:50:01;25.02;;;5.65;;
13171;SDS011;6651;53.200;10.432;2024-01-25T00:52:28;28.40;;;7.43;;
13171;SDS011;6651;53.200;10.432;2024-01-25T00:54:54;26.52;;;7.20;;
13171;SDS011;6651;53.200;10.432;2024-01-25T00:57:20;24.60;;;6.57;;
13171;SDS011;6651;53.200;10.432;2024-01-25T00:59:46;27.13;;;6.97;;
13171;SDS011;6651;53.200;10.432;2024-01-25T01:02:12;30.23;;;7.43;;
13171;SDS011;6651;53.200;10.432;2024-01-25T01:04:39;31.65;;;7.18;;
13171;SDS011;6651;53.200;10.432;2024-01-25T01:07:05;28.63;;;6.75;;
13171;SDS011;6651;53.200;10.432;2024-01-25T01:09:32;28.98;;;6.47;;
13171;SDS011;6651;53.200;10.432;2024-01-25T01:11:58;29.33;;;6.57;;
13171;SDS011;6651;53.200;10.432;2024-01-25T01:14:24;29.25;;;7.28;;
13171;SDS011;6651;53.200;10.432;2024-01-25T01:16:50;25.45;;;6.45;;
13171;SDS011;6651;53.200;10.432;2024-01-25T01:19:16;25.77;;;7.30;;
13171;SDS011;6651;53.200;10.432;2024-01-25T01:21:43;27.10;;;7.20;;
13171;SDS011;6651;53.200;10.432;2024-01-25T01:24:09;29.35;;;6.97;;
13171;SDS011;6651;53.200;10.432;2024-01-25T01:26:36;24.98;;;6.40;;
13171;SDS011;6651;53.200;10.432;2024-01-25T01:29:02;32.65;;;7.60;;
13171;SDS011;6651;53.200;10.432;2024-01-25T01:31:28;27.77;;;6.57;;
13171;SDS011;6651;53.200;10.432;2024-01-25T01:33:54;28.17;;;6.70;;
13171;SDS011;6651;53.200;10.432;2024-01-25T01:36:20;25.80;;;5.78;;
13171;SDS011;6651;53.200;10.432;2024-01-25T01:38:46;26.70;;;6.50;;
13171;SDS011;6651;53.200;10.432;2024-01-25T01:41:12;27.08;;;6.85;;
13171;SDS011;6651;53.200;10.432;2024-01-25T01:43:38;30.88;;;7.15;;
13171;SDS011;6651;53.200;10.432;2024-01-25T01:46:49;22.10;;;6.60;;
13171;SDS011;6651;53.200;10.432;2024-01-25T01:48:50;25.02;;;6.45;;
13171;SDS011;6651;53.200;10.432;2024-01-25T01:51:16;22.05;;;6.78;;
13171;SDS011;6651;53.200;10.432;2024-01-25T01:53:43;25.67;;;7.00;;
13171;SDS011;6651;53.200;10.432;2024-01-25T01:56:09;27.45;;;6.82;;
13171;SDS011;6651;53.200;10.432;2024-01-25T01:58:35;23.13;;;5.85;;
13171;SDS011;6651;53.200;10.432;2024-01-25T02:01:01;30.17;;;7.03;;
13171;SDS011;6651;53.200;10.432;2024-01-25T02:03:28;22.73;;;5.82;;
13171;SDS011;6651;53.200;10.432;2024-01-25T02:05:54;22.48;;;6.22;;
13171;SDS011;6651;53.200;10.432;2024-01-25T02:08:20;29.95;;;7.30;;
13171;SDS011;6651;53.200;10.432;2024-01-25T02:10:46;22.38;;;5.57;;
13171;SDS011;6651;53.200;10.432;2024-01-25T02:13:12;22.73;;;6.32;;
13171;SDS011;6651;53.200;10.432;2024-01-25T02:15:38;27.08;;;6.90;;
13171;SDS011;6651;53.200;10.432;2024-01-25T02:18:04;29.27;;;6.50;;
13171;SDS011;6651;53.200;10.432;2024-01-25T02:20:30;27.33;;;6.70;;
13171;SDS011;6651;53.200;10.432;2024-01-25T02:22:57;25.45;;;7.18;;
13171;SDS011;6651;53.200;10.432;2024-01-25T02:25:22;25.63;;;6.10;;
13171;SDS011;6651;53.200;10.432;2024-01-25T02:27:49;21.73;;;5.95;;
13171;SDS011;6651;53.200;10.432;2024-01-25T02:30:15;30.67;;;6.70;;
13171;SDS011;6651;53.200;10.432;2024-01-25T02:32:42;23.02;;;5.93;;
13171;SDS011;6651;53.200;10.432;2024-01-25T02:35:09;22.35;;;5.47;;
13171;SDS011;6651;53.200;10.432;2024-01-25T02:37:35;25.33;;;6.43;;
13171;SDS011;6651;53.200;10.432;2024-01-25T02:40:01;21.67;;;5.95;;
13171;SDS011;6651;53.200;10.432;2024-01-25T02:42:28;26.30;;;5.93;;
13171;SDS011;6651;53.200;10.432;2024-01-25T02:44:54;24.95;;;6.57;;
13171;SDS011;6651;53.200;10.432;2024-01-25T02:47:20;24.38;;;6.45;;
13171;SDS011;6651;53.200;10.432;2024-01-25T02:49:46;23.67;;;6.35;;
13171;SDS011;6651;53.200;10.432;2024-01-25T02:52:12;26.30;;;6.65;;
13171;SDS011;6651;53.200;10.432;2024-01-25T02:54:38;23.83;;;5.55;;
13171;SDS011;6651;53.200;10.432;2024-01-25T02:57:04;23.40;;;6.43;;
13171;SDS011;6651;53.200;10.432;2024-01-25T02:59:31;22.20;;;6.57;;
13171;SDS011;6651;53.200;10.432;2024-01-25T03:01:57;27.23;;;6.80;;
13171;SDS011;6651;53.200;10.432;2024-01-25T03:04:23;27.45;;;6.70;;
13171;SDS011;6651;53.200;10.432;2024-01-25T03:06:49;19.98;;;5.72;;
13171;SDS011;6651;53.200;10.432;2024-01-25T03:09:15;24.73;;;5.78;;
13171;SDS011;6651;53.200;10.432;2024-01-25T03:11:41;27.75;;;7.07;;
13171;SDS011;6651;53.200;10.432;2024-01-25T03:14:07;25.73;;;5.95;;
13171;SDS011;6651;53.200;10.432;2024-01-25T03:16:33;26.05;;;6.90;;
13171;SDS011;6651;53.200;10.432;2024-01-25T03:18:59;27.08;;;6.72;;
13171;SDS011;6651;53.200;10.432;2024-01-25T03:21:25;23.95;;;6.25;;
13171;SDS011;6651;53.200;10.432;2024-01-25T03:23:51;21.60;;;5.68;;
13171;SDS011;6651;53.200;10.432;2024-01-25T03:26:17;30.35;;;6.68;;
13171;SDS011;6651;53.200;10.432;2024-01-25T03:28:43;19.98;;;6.00;;
13171;SDS011;6651;53.200;10.432;2024-01-25T03:31:09;28.33;;;6.20;;
13171;SDS011;6651;53.200;10.432;2024-01-25T03:33:35;22.20;;;5.88;;
13171;SDS011;6651;53.200;10.432;2024-01-25T03:36:05;24.63;;;5.60;;
13171;SDS011;6651;53.200;10.432;2024-01-25T03:38:31;26.30;;;5.90;;
13171;SDS011;6651;53.200;10.432;2024-01-25T03:40:57;21.98;;;6.35;;
13171;SDS011;6651;53.200;10.432;2024-01-25T03:43:26;25.33;;;6.07;;
13171;SDS011;6651;53.200;10.432;2024-01-25T03:45:53;25.00;;;5.82;;
13171;SDS011;6651;53.200;10.432;2024-01-25T03:48:19;21.00;;;5.40;;
13171;SDS011;6651;53.200;10.432;2024-01-25T03:50:47;25.60;;;5.57;;
13171;SDS011;6651;53.200;10.432;2024-01-25T03:53:12;27.58;;;6.00;;
13171;SDS011;6651;53.200;10.432;2024-01-25T03:55:39;22.25;;;5.95;;
13171;SDS011;6651;53.200;10.432;2024-01-25T03:58:06;21.15;;;5.60;;
13171;SDS011;6651;53.200;10.432;2024-01-25T04:00:33;24.48;;;5.97;;
13171;SDS011;6651;53.200;10.432;2024-01-25T04:02:59;21.08;;;5.35;;
13171;SDS011;6651;53.200;10.432;2024-01-25T04:05:25;28.52;;;6.15;;
13171;SDS011;6651;53.200;10.432;2024-01-25T04:07:51;25.23;;;5.65;;
13171;SDS011;6651;53.200;10.432;2024-01-25T04:10:17;23.60;;;5.70;;
13171;SDS011;6651;53.200;10.432;2024-01-25T04:12:43;27.13;;;6.35;;
13171;SDS011;6651;53.200;10.432;2024-01-25T04:15:09;24.75;;;5.78;;
13171;SDS011;6651;53.200;10.432;2024-01-25T04:17:35;19.48;;;5.38;;
13171;SDS011;6651;53.200;10.432;2024-01-25T04:20:01;23.38;;;5.65;;
13171;SDS011;6651;53.200;10.432;2024-01-25T04:22:28;23.42;;;5.38;;
13171;SDS011;6651;53.200;10.432;2024-01-25T04:24:54;24.02;;;5.80;;
13171;SDS011;6651;53.200;10.432;2024-01-25T04:27:19;21.85;;;5.80;;
13171;SDS011;6651;53.200;10.432;2024-01-25T04:29:45;25.73;;;6.20;;
13171;SDS011;6651;53.200;10.432;2024-01-25T04:32:13;24.80;;;5.85;;
13171;SDS011;6651;53.200;10.432;2024-01-25T04:34:39;24.33;;;6.05;;
13171;SDS011;6651;53.200;10.432;2024-01-25T04:37:05;19.98;;;5.50;;
13171;SDS011;6651;53.200;10.432;2024-01-25T04:39:31;22.80;;;5.20;;
13171;SDS011;6651;53.200;10.432;2024-01-25T04:41:57;22.48;;;5.60;;
13171;SDS011;6651;53.200;10.432;2024-01-25T04:44:23;27.95;;;5.97;;
13171;SDS011;6651;53.200;10.432;2024-01-25T04:46:49;22.83;;;6.22;;
13171;SDS011;6651;53.200;10.432;2024-01-25T04:49:17;21.73;;;5.93;;
13171;SDS011;6651;53.200;10.432;2024-01-25T04:51:43;22.00;;;5.53;;
13171;SDS011;6651;53.200;10.432;2024-01-25T04:54:09;22.25;;;5.55;;
13171;SDS011;6651;53.200;10.432;2024-01-25T04:56:37;23.98;;;5.65;;
13171;SDS011;6651;53.200;10.432;2024-01-25T04:59:03;23.42;;;5.97;;
13171;SDS011;6651;53.200;10.432;2024-01-25T05:01:29;23.30;;;5.38;;
13171;SDS011;6651;53.200;10.432;2024-01-25T05:03:55;25.65;;;5.50;;
13171;SDS011;6651;53.200;10.432;2024-01-25T05:06:21;21.45;;;5.38;;
13171;SDS011;6651;53.200;10.432;2024-01-25T05:08:47;25.42;;;6.57;;
13171;SDS011;6651;53.200;10.432;2024-01-25T05:11:13;25.35;;;6.93;;
13171;SDS011;6651;53.200;10.432;2024-01-25T05:13:39;24.77;;;5.95;;
13171;SDS011;6651;53.200;10.432;2024-01-25T05:16:05;26.75;;;6.43;;
13171;SDS011;6651;53.200;10.432;2024-01-25T05:18:31;25.20;;;5.85;;
13171;SDS011;6651;53.200;10.432;2024-01-25T05:20:57;22.20;;;5.47;;
13171;SDS011;6651;53.200;10.432;2024-01-25T05:23:23;25.23;;;6.00;;
13171;SDS011;6651;53.200;10.432;2024-01-25T05:25:49;24.15;;;5.95;;
13171;SDS011;6651;53.200;10.432;2024-01-25T05:28:15;19.90;;;6.07;;
13171;SDS011;6651;53.200;10.432;2024-01-25T05:30:41;24.33;;;5.88;;
13171;SDS011;6651;53.200;10.432;2024-01-25T05:33:07;24.80;;;5.40;;
13171;SDS011;6651;53.200;10.432;2024-01-25T05:35:33;24.75;;;6.30;;
13171;SDS011;6651;53.200;10.432;2024-01-25T05:38:00;26.05;;;6.88;;
13171;SDS011;6651;53.200;10.432;2024-01-25T05:40:26;22.17;;;5.70;;
13171;SDS011;6651;53.200;10.432;2024-01-25T05:42:52;23.42;;;5.57;;
13171;SDS011;6651;53.200;10.432;2024-01-25T05:45:18;23.50;;;5.55;;
13171;SDS011;6651;53.200;10.432;2024-01-25T05:47:46;22.63;;;6.18;;
13171;SDS011;6651;53.200;10.432;2024-01-25T05:50:12;25.08;;;6.70;;
13171;SDS011;6651;53.200;10.432;2024-01-25T05:52:38;22.20;;;5.90;;
13171;SDS011;6651;53.200;10.432;2024-01-25T05:55:04;25.95;;;5.93;;
13171;SDS011;6651;53.200;10.432;2024-01-25T05:57:31;26.00;;;6.60;;
13171;SDS011;6651;53.200;10.432;2024-01-25T05:59:57;27.30;;;6.05;;
13171;SDS011;6651;53.200;10.432;2024-01-25T06:02:23;24.58;;;5.40;;
13171;SDS011;6651;53.200;10.432;2024-01-25T06:04:49;23.05;;;5.88;;
13171;SDS011;6651;53.200;10.432;2024-01-25T06:07:15;19.30;;;5.72;;
13171;SDS011;6651;53.200;10.432;2024-01-25T06:09:41;27.58;;;6.03;;
13171;SDS011;6651;53.200;10.432;2024-01-25T06:12:07;20.08;;;5.22;;
13171;SDS011;6651;53.200;10.432;2024-01-25T06:14:33;25.52;;;5.40;;
13171;SDS011;6651;53.200;10.432;2024-01-25T06:16:59;20.90;;;6.10;;
13171;SDS011;6651;53.200;10.432;2024-01-25T06:19:25;27.15;;;6.00;;
13171;SDS011;6651;53.200;10.432;2024-01-25T06:21:51;24.15;;;5.93;;
13171;SDS011;6651;53.200;10.432;2024-01-25T06:24:17;24.67;;;5.55;;
13171;SDS011;6651;53.200;10.432;2024-01-25T06:26:43;23.83;;;5.45;;
13171;SDS011;6651;53.200;10.432;2024-01-25T06:29:09;23.38;;;5.68;;
13171;SDS011;6651;53.200;10.432;2024-01-25T06:31:42;18.55;;;5.47;;
13171;SDS011;6651;53.200;10.432;2024-01-25T06:34:08;25.42;;;5.45;;
13171;SDS011;6651;53.200;10.432;2024-01-25T06:36:34;24.80;;;5.60;;
13171;SDS011;6651;53.200;10.432;2024-01-25T06:39:00;18.00;;;4.65;;
13171;SDS011;6651;53.200;10.432;2024-01-25T06:41:26;20.20;;;5.63;;
13171;SDS011;6651;53.200;10.432;2024-01-25T06:43:52;24.02;;;5.82;;
13171;SDS011;6651;53.200;10.432;2024-01-25T06:46:18;24.10;;;5.75;;
13171;SDS011;6651;53.200;10.432;2024-01-25T06:48:44;25.75;;;5.85;;
13171;SDS011;6651;53.200;10.432;2024-01-25T06:51:10;21.73;;;5.55;;
13171;SDS011;6651;53.200;10.432;2024-01-25T06:53:36;26.30;;;5.65;;
13171;SDS011;6651;53.200;10.432;2024-01-25T06:56:02;21.77;;;5.90;;
13171;SDS011;6651;53.200;10.432;2024-01-25T06:58:28;30.10;;;5.90;;
13171;SDS011;6651;53.200;10.432;2024-01-25T07:00:54;22.40;;;5.07;;
13171;SDS011;6651;53.200;10.432;2024-01-25T07:03:20;22.55;;;5.25;;
13171;SDS011;6651;53.200;10.432;2024-01-25T07:05:46;24.58;;;5.15;;
13171;SDS011;6651;53.200;10.432;2024-01-25T07:08:12;22.45;;;5.65;;
13171;SDS011;6651;53.200;10.432;2024-01-25T07:10:40;21.83;;;5.70;;
13171;SDS011;6651;53.200;10.432;2024-01-25T07:13:06;26.95;;;5.47;;
13171;SDS011;6651;53.200;10.432;2024-01-25T07:15:32;24.67;;;5.45;;
13171;SDS011;6651;53.200;10.432;2024-01-25T07:17:58;21.80;;;5.47;;
13171;SDS011;6651;53.200;10.432;2024-01-25T07:20:24;24.10;;;5.90;;
13171;SDS011;6651;53.200;10.432;2024-01-25T07:22:50;21.00;;;5.45;;
13171;SDS011;6651;53.200;10.432;2024-01-25T07:25:16;22.70;;;5.45;;
13171;SDS011;6651;53.200;10.432;2024-01-25T07:27:45;22.75;;;5.47;;
13171;SDS011;6651;53.200;10.432;2024-01-25T07:30:11;21.88;;;5.60;;
13171;SDS011;6651;53.200;10.432;2024-01-25T07:32:38;21.40;;;5.85;;
13171;SDS011;6651;53.200;10.432;2024-01-25T07:35:07;22.38;;;5.82;;
13171;SDS011;6651;53.200;10.432;2024-01-25T07:37:33;24.40;;;5.93;;
13171;SDS011;6651;53.200;10.432;2024-01-25T07:39:59;26.42;;;6.53;;
13171;SDS011;6651;53.200;10.432;2024-01-25T07:42:25;19.95;;;5.18;;
13171;SDS011;6651;53.200;10.432;2024-01-25T07:44:51;19.42;;;5.63;;
13171;SDS011;6651;53.200;10.432;2024-01-25T07:47:17;19.02;;;5.22;;
13171;SDS011;6651;53.200;10.432;2024-01-25T07:49:43;21.67;;;5.70;;
13171;SDS011;6651;53.200;10.432;2024-01-25T07:52:09;27.35;;;6.57;;
13171;SDS011;6651;53.200;10.432;2024-01-25T07:54:35;25.90;;;6.47;;
13171;SDS011;6651;53.200;10.432;2024-01-25T07:57:01;24.15;;;5.78;;
13171;SDS011;6651;53.200;10.432;2024-01-25T07:59:27;24.52;;;5.60;;
13171;SDS011;6651;53.200;10.432;2024-01-25T08:01:53;28.48;;;5.95;;
13171;SDS011;6651;53.200;10.432;2024-01-25T08:04:19;24.48;;;5.72;;
13171;SDS011;6651;53.200;10.432;2024-01-25T08:06:45;21.67;;;5.38;;
13171;SDS011;6651;53.200;10.432;2024-01-25T08:09:11;24.42;;;5.53;;
13171;SDS011;6651;53.200;10.432;2024-01-25T08:11:37;23.83;;;5.45;;
13171;SDS011;6651;53.200;10.432;2024-01-25T08:14:03;24.00;;;5.57;;
13171;SDS011;6651;53.200;10.432;2024-01-25T08:16:30;20.60;;;5.65;;
13171;SDS011;6651;53.200;10.432;2024-01-25T08:18:56;23.45;;;5.85;;
13171;SDS011;6651;53.200;10.432;2024-01-25T08:21:23;20.60;;;5.60;;
13171;SDS011;6651;53.200;10.432;2024-01-25T08:23:49;20.23;;;4.88;;
13171;SDS011;6651;53.200;10.432;2024-01-25T08:26:15;22.17;;;5.35;;
13171;SDS011;6651;53.200;10.432;2024-01-25T08:28:42;21.33;;;4.63;;
13171;SDS011;6651;53.200;10.432;2024-01-25T08:31:09;19.48;;;5.05;;
13171;SDS011;6651;53.200;10.432;2024-01-25T08:33:35;23.98;;;5.55;;
13171;SDS011;6651;53.200;10.432;2024-01-25T08:36:01;18.15;;;4.68;;
13171;SDS011;6651;53.200;10.432;2024-01-25T08:38:28;24.33;;;5.35;;
13171;SDS011;6651;53.200;10.432;2024-01-25T08:40:54;22.20;;;5.22;;
13171;SDS011;6651;53.200;10.432;2024-01-25T08:43:20;23.10;;;5.60;;
13171;SDS011;6651;53.200;10.432;2024-01-25T08:45:46;25.88;;;5.65;;
13171;SDS011;6651;53.200;10.432;2024-01-25T08:48:12;25.52;;;5.90;;
13171;SDS011;6651;53.200;10.432;2024-01-25T08:50:38;22.10;;;5.43;;
13171;SDS011;6651;53.200;10.432;2024-01-25T08:53:04;24.35;;;5.68;;
13171;SDS011;6651;53.200;10.432;2024-01-25T08:55:30;21.00;;;5.47;;
13171;SDS011;6651;53.200;10.432;2024-01-25T08:57:56;21.42;;;5.80;;
13171;SDS011;6651;53.200;10.432;2024-01-25T09:00:22;20.30;;;5.55;;
13171;SDS011;6651;53.200;10.432;2024-01-25T09:02:48;30.25;;;6.10;;
13171;SDS011;6651;53.200;10.432;2024-01-25T09:05:15;22.67;;;5.18;;
13171;SDS011;6651;53.200;10.432;2024-01-25T09:07:41;24.88;;;5.32;;
13171;SDS011;6651;53.200;10.432;2024-01-25T09:10:07;27.48;;;5.68;;
13171;SDS011;6651;53.200;10.432;2024-01-25T09:12:37;20.30;;;5.50;;
13171;SDS011;6651;53.200;10.432;2024-01-25T09:15:04;24.00;;;5.57;;
13171;SDS011;6651;53.200;10.432;2024-01-25T09:17:30;26.05;;;5.88;;
13171;SDS011;6651;53.200;10.432;2024-01-25T09:19:56;21.08;;;5.45;;
13171;SDS011;6651;53.200;10.432;2024-01-25T09:22:24;20.90;;;5.03;;
13171;SDS011;6651;53.200;10.432;2024-01-25T09:24:50;19.50;;;5.25;;
13171;SDS011;6651;53.200;10.432;2024-01-25T09:27:16;21.20;;;4.90;;
13171;SDS011;6651;53.200;10.432;2024-01-25T09:29:43;19.77;;;5.22;;
13171;SDS011;6651;53.200;10.432;2024-01-25T09:32:10;23.00;;;5.00;;
13171;SDS011;6651;53.200;10.432;2024-01-25T09:34:36;23.80;;;5.38;;
13171;SDS011;6651;53.200;10.432;2024-01-25T09:37:02;18.08;;;4.93;;
13171;SDS011;6651;53.200;10.432;2024-01-25T09:39:28;22.65;;;5.53;;
13171;SDS011;6651;53.200;10.432;2024-01-25T09:41:54;20.83;;;5.35;;
13171;SDS011;6651;53.200;10.432;2024-01-25T09:44:20;22.00;;;5.32;;
13171;SDS011;6651;53.200;10.432;2024-01-25T09:46:47;20.70;;;4.90;;
13171;SDS011;6651;53.200;10.432;2024-01-25T09:49:13;24.42;;;5.70;;
13171;SDS011;6651;53.200;10.432;2024-01-25T09:51:40;20.67;;;5.15;;
13171;SDS011;6651;53.200;10.432;2024-01-25T09:54:07;27.75;;;5.65;;
13171;SDS011;6651;53.200;10.432;2024-01-25T09:56:33;22.95;;;5.93;;
13171;SDS011;6651;53.200;10.432;2024-01-25T09:59:00;21.75;;;5.72;;
13171;SDS011;6651;53.200;10.432;2024-01-25T10:01:26;23.77;;;5.15;;
13171;SDS011;6651;53.200;10.432;2024-01-25T10:03:52;18.90;;;4.97;;
13171;SDS011;6651;53.200;10.432;2024-01-25T10:06:21;19.33;;;4.97;;
13171;SDS011;6651;53.200;10.432;2024-01-25T10:08:47;16.48;;;4.97;;
13171;SDS011;6651;53.200;10.432;2024-01-25T10:11:14;23.63;;;5.78;;
13171;SDS011;6651;53.200;10.432;2024-01-25T10:13:43;23.15;;;5.43;;
13171;SDS011;6651;53.200;10.432;2024-01-25T10:16:11;24.08;;;5.70;;
13171;SDS011;6651;53.200;10.432;2024-01-25T10:18:37;23.77;;;5.53;;
13171;SDS011;6651;53.200;10.432;2024-01-25T10:21:04;21.20;;;5.00;;
13171;SDS011;6651;53.200;10.432;2024-01-25T10:23:30;18.40;;;4.65;;
13171;SDS011;6651;53.200;10.432;2024-01-25T10:25:56;23.80;;;5.18;;
13171;SDS011;6651;53.200;10.432;2024-01-25T10:28:23;19.58;;;4.80;;
13171;SDS011;6651;53.200;10.432;2024-01-25T10:30:50;25.60;;;5.93;;
13171;SDS011;6651;53.200;10.432;2024-01-25T10:33:17;22.42;;;5.82;;
13171;SDS011;6651;53.200;10.432;2024-01-25T10:35:44;18.15;;;4.70;;
13171;SDS011;6651;53.200;10.432;2024-01-25T10:38:15;20.63;;;4.75;;
13171;SDS011;6651;53.200;10.432;2024-01-25T10:40:43;22.35;;;4.65;;
13171;SDS011;6651;53.200;10.432;2024-01-25T10:43:09;18.85;;;5.25;;
13171;SDS011;6651;53.200;10.432;2024-01-25T10:45:35;17.25;;;4.78;;
13171;SDS011;6651;53.200;10.432;2024-01-25T10:48:02;21.20;;;5.75;;
13171;SDS011;6651;53.200;10.432;2024-01-25T10:50:28;17.58;;;5.10;;
13171;SDS011;6651;53.200;10.432;2024-01-25T10:52:55;19.58;;;6.18;;
13171;SDS011;6651;53.200;10.432;2024-01-25T10:55:21;25.15;;;5.68;;
13171;SDS011;6651;53.200;10.432;2024-01-25T10:57:48;17.25;;;5.10;;
13171;SDS011;6651;53.200;10.432;2024-01-25T11:00:17;17.85;;;5.10;;
13171;SDS011;6651;53.200;10.432;2024-01-25T11:02:43;22.83;;;5.95;;
13171;SDS011;6651;53.200;10.432;2024-01-25T11:05:10;17.90;;;4.97;;
13171;SDS011;6651;53.200;10.432;2024-01-25T11:07:44;24.33;;;5.57;;
13171;SDS011;6651;53.200;10.432;2024-01-25T11:10:13;18.38;;;5.05;;
13171;SDS011;6651;53.200;10.432;2024-01-25T11:12:56;22.48;;;5.20;;
13171;SDS011;6651;53.200;10.432;2024-01-25T11:15:23;19.65;;;4.95;;
13171;SDS011;6651;53.200;10.432;2024-01-25T11:17:52;18.77;;;5.35;;
13171;SDS011;6651;53.200;10.432;2024-01-25T11:20:22;20.73;;;4.85;;
13171;SDS011;6651;53.200;10.432;2024-01-25T11:22:54;22.60;;;5.82;;
13171;SDS011;6651;53.200;10.432;2024-01-25T11:25:20;18.60;;;5.30;;
13171;SDS011;6651;53.200;10.432;2024-01-25T11:27:47;18.77;;;5.43;;
13171;SDS011;6651;53.200;10.432;2024-01-25T11:30:14;20.88;;;5.25;;
13171;SDS011;6651;53.200;10.432;2024-01-25T11:32:40;17.15;;;5.07;;
13171;SDS011;6651;53.200;10.432;2024-01-25T11:35:07;16.77;;;5.00;;
13171;SDS011;6651;53.200;10.432;2024-01-25T11:37:36;21.67;;;4.72;;
13171;SDS011;6651;53.200;10.432;2024-01-25T11:40:02;18.88;;;4.88;;
13171;SDS011;6651;53.200;10.432;2024-01-25T11:42:28;16.90;;;4.85;;
13171;SDS011;6651;53.200;10.432;2024-01-25T11:44:55;22.30;;;5.43;;
13171;SDS011;6651;53.200;10.432;2024-01-25T11:47:22;20.77;;;5.10;;
13171;SDS011;6651;53.200;10.432;2024-01-25T11:49:48;18.98;;;4.35;;
13171;SDS011;6651;53.200;10.432;2024-01-25T11:52:14;21.02;;;5.10;;
13171;SDS011;6651;53.200;10.432;2024-01-25T11:54:40;21.75;;;5.03;;
13171;SDS011;6651;53.200;10.432;2024-01-25T11:57:06;16.65;;;4.53;;
13171;SDS011;6651;53.200;10.432;2024-01-25T11:59:33;17.33;;;5.03;;
13171;SDS011;6651;53.200;10.432;2024-01-25T12:01:59;17.05;;;4.80;;
13171;SDS011;6651;53.200;10.432;2024-01-25T12:04:26;21.27;;;5.30;;
13171;SDS011;6651;53.200;10.432;2024-01-25T12:06:52;16.85;;;4.75;;
13171;SDS011;6651;53.200;10.432;2024-01-25T12:09:18;24.70;;;5.65;;
13171;SDS011;6651;53.200;10.432;2024-01-25T12:11:48;21.25;;;5.20;;
13171;SDS011;6651;53.200;10.432;2024-01-25T12:14:16;23.98;;;5.85;;
13171;SDS011;6651;53.200;10.432;2024-01-25T12:16:42;23.35;;;5.55;;
13171;SDS011;6651;53.200;10.432;2024-01-25T12:19:08;23.13;;;4.80;;
13171;SDS011;6651;53.200;10.432;2024-01-25T12:21:34;22.38;;;5.18;;
13171;SDS011;6651;53.200;10.432;2024-01-25T12:24:01;24.33;;;5.57;;
13171;SDS011;6651;53.200;10.432;2024-01-25T12:26:27;19.98;;;4.55;;
13171;SDS011;6651;53.200;10.432;2024-01-25T12:28:54;18.50;;;4.90;;
13171;SDS011;6651;53.200;10.432;2024-01-25T12:31:20;17.65;;;4.95;;
13171;SDS011;6651;53.200;10.432;2024-01-25T12:33:46;18.75;;;4.82;;
13171;SDS011;6651;53.200;10.432;2024-01-25T12:36:12;20.20;;;4.57;;
13171;SDS011;6651;53.200;10.432;2024-01-25T12:38:38;16.02;;;4.32;;
13171;SDS011;6651;53.200;10.432;2024-01-25T12:41:04;16.65;;;4.40;;
13171;SDS011;6651;53.200;10.432;2024-01-25T12:43:30;18.83;;;4.72;;
13171;SDS011;6651;53.200;10.432;2024-01-25T12:45:56;21.02;;;4.95;;
13171;SDS011;6651;53.200;10.432;2024-01-25T12:48:22;19.20;;;4.75;;
13171;SDS011;6651;53.200;10.432;2024-01-25T12:50:48;19.92;;;5.30;;
13171;SDS011;6651;53.200;10.432;2024-01-25T12:53:14;16.75;;;4.38;;
13171;SDS011;6651;53.200;10.432;2024-01-25T12:55:40;18.70;;;4.43;;
13171;SDS011;6651;53.200;10.432;2024-01-25T12:58:06;19.40;;;4.63;;
13171;SDS011;6651;53.200;10.432;2024-01-25T13:00:32;21.50;;;4.90;;
13171;SDS011;6651;53.200;10.432;2024-01-25T13:02:58;18.10;;;4.10;;
13171;SDS011;6651;53.200;10.432;2024-01-25T13:05:26;17.58;;;4.88;;
13171;SDS011;6651;53.200;10.432;2024-01-25T13:07:52;18.30;;;4.85;;
13171;SDS011;6651;53.200;10.432;2024-01-25T13:10:19;22.25;;;5.18;;
13171;SDS011;6651;53.200;10.432;2024-01-25T13:12:44;18.77;;;4.85;;
13171;SDS011;6651;53.200;10.432;2024-01-25T13:15:11;20.20;;;5.10;;
13171;SDS011;6651;53.200;10.432;2024-01-25T13:17:37;18.15;;;4.57;;
13171;SDS011;6651;53.200;10.432;2024-01-25T13:20:03;14.43;;;4.40;;
13171;SDS011;6651;53.200;10.432;2024-01-25T13:22:33;19.63;;;4.50;;
13171;SDS011;6651;53.200;10.432;2024-01-25T13:24:59;21.50;;;4.68;;
13171;SDS011;6651;53.200;10.432;2024-01-25T13:27:25;18.65;;;4.75;;
13171;SDS011;6651;53.200;10.432;2024-01-25T13:29:52;18.75;;;4.70;;
13171;SDS011;6651;53.200;10.432;2024-01-25T13:32:18;19.63;;;5.22;;
13171;SDS011;6651;53.200;10.432;2024-01-25T13:34:44;15.07;;;4.47;;
13171;SDS011;6651;53.200;10.432;2024-01-25T13:37:10;15.57;;;4.35;;
13171;SDS011;6651;53.200;10.432;2024-01-25T13:39:36;17.95;;;4.80;;
13171;SDS011;6651;53.200;10.432;2024-01-25T13:42:02;16.35;;;4.25;;
13171;SDS011;6651;53.200;10.432;2024-01-25T13:44:28;16.10;;;4.63;;
13171;SDS011;6651;53.200;10.432;2024-01-25T13:46:54;15.82;;;4.20;;
13171;SDS011;6651;53.200;10.432;2024-01-25T13:49:21;15.38;;;4.63;;
13171;SDS011;6651;53.200;10.432;2024-01-25T13:51:47;17.27;;;4.78;;
13171;SDS011;6651;53.200;10.432;2024-01-25T13:54:13;19.23;;;4.55;;
13171;SDS011;6651;53.200;10.432;2024-01-25T13:56:39;15.82;;;4.10;;
13171;SDS011;6651;53.200;10.432;2024-01-25T13:59:05;14.15;;;4.15;;
13171;SDS011;6651;53.200;10.432;2024-01-25T14:01:31;17.50;;;4.43;;
13171;SDS011;6651;53.200;10.432;2024-01-25T14:03:57;14.93;;;4.28;;
13171;SDS011;6651;53.200;10.432;2024-01-25T14:06:24;18.02;;;4.22;;
13171;SDS011;6651;53.200;10.432;2024-01-25T14:08:50;18.00;;;4.53;;
13171;SDS011;6651;53.200;10.432;2024-01-25T14:11:16;14.80;;;4.32;;
13171;SDS011;6651;53.200;10.432;2024-01-25T14:13:42;12.75;;;3.53;;
13171;SDS011;6651;53.200;10.432;2024-01-25T14:16:08;12.57;;;3.90;;
13171;SDS011;6651;53.200;10.432;2024-01-25T14:18:43;15.88;;;3.90;;
13171;SDS011;6651;53.200;10.432;2024-01-25T14:21:09;14.82;;;3.97;;
13171;SDS011;6651;53.200;10.432;2024-01-25T14:23:35;16.02;;;4.80;;
13171;SDS011;6651;53.200;10.432;2024-01-25T14:26:01;13.27;;;4.50;;
13171;SDS011;6651;53.200;10.432;2024-01-25T14:28:28;16.63;;;3.88;;